KFMM

Fort Morgan Municipal Airport

Fort Morgan, Colorado, USA
METAR KFMM 171455Z AUTO 26010KT 10SM M09/M12 A3012 RMK AO2 T10891122
Observed Flight Rules
Dec-17 @ 14:55 UTC (21 minutes ago)
Wind Visibility
260° at 10 knots 10 miles
Temperatures Readings
Current -9°C / 16°F
Dewpoint -12°C / 10°F
Humidity 79%
Altimeter 30.12" Hg
Pressure 1020 hPa
Elevation 1393
METAR KFMM 171455Z AUTO 26010KT 10SM M09/M12 A3012 RMK AO2 T10891122
Observed Flight Rules
Dec-17 @ 14:55 UTC
(21 minutes ago)
Wind Visibility
260° at 10 knots 10 miles
Temperature Dewpoint
-9°C / 16°F -12°C / 10°F
Humidity Altimeter Pressure
79% 30.12" Hg 1020 hPa